This is the latest recevied weather packets stored in our database for station/object N8SDR. If no packets are shown the sender has not sent any weather packets the latest 10 day(s).
| Time | Temp. | Humidity | Pressure | Rain* | Wind** | Luminosity | Snow |
|---|---|---|---|---|---|---|---|
| 1777765333 | 10° C | 56% | 1014.3 hPa | 0 mm | - | 39 W/m² | - |
| 1777765028 | 10° C | 54% | 1014.1 hPa | 0 mm | - | 43 W/m² | - |
| 1777764726 | 10.56° C | 54% | 1014.3 hPa | 0 mm | - | 47 W/m² | - |
| 1777764421 | 10.56° C | 53% | 1014.3 hPa | 0 mm | - | 51 W/m² | - |
| 1777764119 | 10.56° C | 52% | 1014.1 hPa | 0 mm | - | 54 W/m² | - |
| 1777763815 | 10.56° C | 53% | 1014 hPa | 0 mm | - | 117 W/m² | - |
| 1777763513 | 11.11° C | 52% | 1014.2 hPa | 0 mm | - | 135 W/m² | - |
| 1777763212 | 10.56° C | 52% | 1014 hPa | 0 mm | - | 149 W/m² | - |
| 1777762910 | 10.56° C | 51% | 1014.2 hPa | 0 mm | - | 86 W/m² | - |
| 1777762605 | 10.56° C | 53% | 1014.2 hPa | 0 mm | - | 161 W/m² | - |
| 1777762303 | 10.56° C | 51% | 1014 hPa | 0 mm | - | 79 W/m² | - |
| 1777761998 | 10.56° C | 52% | 1014.1 hPa | 0 mm | - | 87 W/m² | - |
| 1777761690 | 10.56° C | 52% | 1013.9 hPa | 0 mm | - | 101 W/m² | - |
| 1777761387 | 10.56° C | 51% | 1013.8 hPa | 0 mm | - | 90 W/m² | - |
| 1777761086 | 11.11° C | 50% | 1014 hPa | 0 mm | - | 85 W/m² | - |
| 1777760783 | 11.11° C | 51% | 1013.9 hPa | 0 mm | - | 105 W/m² | - |
| 1777760479 | 11.11° C | 50% | 1013.9 hPa | 0 mm | - | 150 W/m² | - |
| 1777760175 | 11.11° C | 50% | 1013.9 hPa | 0 mm | - | 117 W/m² | - |
| 1777759872 | 11.11° C | 50% | 1014 hPa | 0 mm | - | 142 W/m² | - |
| 1777759569 | 11.11° C | 49% | 1013.8 hPa | 0 mm | - | 154 W/m² | - |
| 1777759265 | 11.11° C | 50% | 1013.7 hPa | 0 mm | - | 140 W/m² | - |
| 1777758962 | 11.67° C | 48% | 1013.9 hPa | 0 mm | - | 131 W/m² | - |
| 1777758659 | 12.22° C | 48% | 1013.9 hPa | 0 mm | - | 156 W/m² | - |
| 1777758355 | 11.67° C | 47% | 1013.6 hPa | 0 mm | - | 145 W/m² | - |
| 1777758053 | 11.67° C | 49% | 1013.7 hPa | 0 mm | - | 159 W/m² | - |
* Rain latest hour (hover to see other rain measurements)
** Current wind speed in m/s (hover to see current wind gust speed)